Terminal Aerodrome Forecast
Issued by NWS Sterling, VA

Current Version | Previous Version | Graphics & Text | Print | Product List | Glossary On
Versions: 1 2 3 4 5 6 7 8 9 10 11 12 13 14 15 16 17 18
000
FTUS41 KLWX 250400 AAA
TAFMRB
TAF AMD
KMRB 250428Z 2504/2524 27008KT 4SM -SHRA BR BKN007
     FM250900 27012G20KT P6SM OVC070
     FM251500 28017G28KT P6SM SCT030
     FM252100 28011KT P6SM FEW250=

USA.gov is the U.S. government's official web portal to all federal, state and local government web resources and services.